createdAt,value
2022-09-14T00:01:03.094Z,104.57
2022-09-14T00:11:16.006Z,101.73
2022-09-14T00:21:21.211Z,99.90
2022-09-14T00:31:27.020Z,99.53
2022-09-14T00:41:34.329Z,99.90
2022-09-14T00:51:45.053Z,94.73
2022-09-14T01:01:50.612Z,108.90
2022-09-14T01:12:12.084Z,103.33
2022-09-14T01:22:25.632Z,102.10
2022-09-14T01:32:37.437Z,102.93
2022-09-14T01:42:44.025Z,117.53
2022-09-14T01:52:52.347Z,102.77
2022-09-14T02:03:00.516Z,101.57
2022-09-14T02:13:07.158Z,108.00
2022-09-14T02:23:10.873Z,108.77
2022-09-14T02:33:22.476Z,110.43
2022-09-14T02:43:34.891Z,108.40
2022-09-14T02:53:47.260Z,98.20
2022-09-14T03:03:51.333Z,98.17
2022-09-14T03:13:56.696Z,108.37
2022-09-14T03:24:00.820Z,99.97
2022-09-14T03:34:05.982Z,106.07
2022-09-14T03:44:11.584Z,105.97
2022-09-14T03:54:17.056Z,111.17
2022-09-14T04:04:20.953Z,91.50
2022-09-14T04:14:26.973Z,93.53
2022-09-14T04:24:31.217Z,92.67
2022-09-14T04:34:36.846Z,94.17
2022-09-14T04:44:40.759Z,90.90
2022-09-14T04:54:45.860Z,98.40
2022-09-14T05:04:50.233Z,97.50
2022-09-14T05:14:55.491Z,102.43
2022-09-14T05:24:59.051Z,101.10
2022-09-14T05:35:05.431Z,95.53
2022-09-14T05:45:10.547Z,95.17
2022-09-14T05:55:15.806Z,96.07
2022-09-14T06:05:20.697Z,103.33
2022-09-14T06:15:25.752Z,105.20
2022-09-14T06:25:29.320Z,105.27
2022-09-14T06:35:34.110Z,105.10
2022-09-14T06:45:37.877Z,120.53
2022-09-14T06:55:44.864Z,107.53
2022-09-14T07:05:48.546Z,109.60
2022-09-14T07:15:53.622Z,110.33
2022-09-14T07:26:03.065Z,115.90
2022-09-14T07:36:09.918Z,126.73
2022-09-14T07:46:13.441Z,117.97
2022-09-14T07:56:18.446Z,115.73
2022-09-14T08:06:25.072Z,121.17
2022-09-14T08:16:32.204Z,121.63
2022-09-14T08:26:37.532Z,116.53
2022-09-14T08:36:44.036Z,119.57
2022-09-14T08:46:50.393Z,126.47
2022-09-14T08:57:05.624Z,135.13
2022-09-14T09:07:17.885Z,133.35
2022-09-14T09:17:29.212Z,145.95
2022-09-14T09:27:32.582Z,156.02
2022-09-14T09:37:41.106Z,145.85
2022-09-14T09:47:45.313Z,145.25
2022-09-14T09:57:50.300Z,160.45
2022-09-14T10:07:57.012Z,141.40
2022-09-14T10:18:17.210Z,142.68
2022-09-14T10:28:25.162Z,151.05
2022-09-14T10:38:36.663Z,141.90
2022-09-14T10:49:25.223Z,143.85
2022-09-14T10:59:38.986Z,143.63
2022-09-14T11:09:49.818Z,137.20
2022-09-14T11:20:02.612Z,137.75
2022-09-14T11:30:12.627Z,129.38
2022-09-14T11:40:24.261Z,122.47
2022-09-14T11:50:32.071Z,123.32
2022-09-14T12:01:02.549Z,122.05
2022-09-14T12:11:28.741Z,118.85
2022-09-14T12:21:34.458Z,115.23
2022-09-14T12:32:07.441Z,118.10
2022-09-14T12:42:28.925Z,115.27
2022-09-14T12:52:44.192Z,109.73
2022-09-14T13:03:19.135Z,121.77
2022-09-14T13:13:28.202Z,112.73
2022-09-14T13:23:43.991Z,112.37
2022-09-14T13:33:50.856Z,110.13
2022-09-14T13:43:58.019Z,108.27
2022-09-14T13:54:20.663Z,111.83
2022-09-14T14:04:37.733Z,110.10
2022-09-14T14:14:41.184Z,111.77
2022-09-14T14:35:18.010Z,103.13
2022-09-14T14:45:26.764Z,108.83
2022-09-14T14:55:31.912Z,116.33
2022-09-14T15:05:40.926Z,117.83
2022-09-14T15:15:45.054Z,104.63
2022-09-14T15:25:52.457Z,103.83
2022-09-14T15:35:57.471Z,107.07
2022-09-14T15:46:04.761Z,102.93
2022-09-14T15:56:11.701Z,105.13
2022-09-14T16:06:16.769Z,102.37
2022-09-14T16:16:22.210Z,101.73
2022-09-14T16:26:29.988Z,115.13
2022-09-14T16:36:36.519Z,129.80
2022-09-14T16:46:41.773Z,128.57
2022-09-14T16:56:46.516Z,127.20
2022-09-14T17:06:52.405Z,113.60
2022-09-14T17:16:56.512Z,126.50
2022-09-14T17:27:01.462Z,125.80
2022-09-14T17:37:05.397Z,126.03
2022-09-14T17:47:10.315Z,107.50
2022-09-14T17:57:14.110Z,117.47
2022-09-14T18:07:18.971Z,104.17
2022-09-14T18:17:22.631Z,120.77
2022-09-14T18:27:27.484Z,113.07
2022-09-14T18:37:31.032Z,119.53
2022-09-14T18:47:36.188Z,110.67
2022-09-14T18:57:42.775Z,110.67
2022-09-14T19:07:48.487Z,130.17
2022-09-14T19:17:52.123Z,122.13
2022-09-14T19:27:57.039Z,113.53
2022-09-14T19:38:00.600Z,110.17
2022-09-14T19:48:06.098Z,107.10
2022-09-14T19:58:09.693Z,116.47
2022-09-14T20:08:14.790Z,124.13
2022-09-14T20:18:18.460Z,99.03
2022-09-14T20:28:27.247Z,106.73
2022-09-14T20:38:31.277Z,111.50
2022-09-14T20:48:36.744Z,113.23
2022-09-14T20:58:41.569Z,106.60
2022-09-14T21:08:47.005Z,102.93
2022-09-14T21:18:56.158Z,114.07
2022-09-14T21:29:03.539Z,119.50
2022-09-14T21:39:09.594Z,109.27
2022-09-14T21:49:21.467Z,101.40
2022-09-14T21:59:25.064Z,110.33
2022-09-14T22:09:30.624Z,99.43
2022-09-14T22:19:35.389Z,97.37
2022-09-14T22:29:41.920Z,97.50
2022-09-14T22:39:45.672Z,94.43
2022-09-14T22:49:52.888Z,97.87
2022-09-14T22:59:56.627Z,93.27
2022-09-14T23:10:01.758Z,102.30
2022-09-14T23:20:06.805Z,109.60
2022-09-14T23:30:13.802Z,99.83
2022-09-14T23:40:19.804Z,97.20
2022-09-14T23:50:25.889Z,98.93
